Time;durP1;ratioP1;P1;durP2;ratioP2;P2;SDS_P1;SDS_P2;PMS_P1;PMS_P2;Temp;Humidity;BMP_temperature;BMP_pressure;BME280_temperature;BME280_humidity;BME280_pressure;Samples;Min_cycle;Max_cycle;Signal;HPM_P1;HPM_P2
2021/10/17 00:00:16;;;;;;;;;13.00;12.50;;;;;14.98;51.70;101605.88;6340810;22;45378;-68
2021/10/17 00:02:43;;;;;;;;;15.75;14.50;;;;;14.99;51.84;101604.97;6312044;22;46940;-68
2021/10/17 00:05:09;;;;;;;;;13.00;11.25;;;;;14.93;51.83;101583.69;6340198;22;45408;-68
2021/10/17 00:07:35;;;;;;;;;13.25;12.25;;;;;14.75;52.21;101558.34;6312517;22;45344;-68
2021/10/17 00:10:00;;;;;;;;;14.50;14.00;;;;;14.94;51.81;101583.63;6341760;22;45298;-68
2021/10/17 00:12:26;;;;;;;;;14.75;13.25;;;;;14.79;51.35;101563.56;6342128;22;45890;-68
2021/10/17 00:14:51;;;;;;;;;15.00;12.25;;;;;14.66;51.69;101535.38;6313174;22;46225;-68
2021/10/17 00:17:17;;;;;;;;;12.00;11.50;;;;;14.76;51.75;101552.91;6340271;22;45185;-68
2021/10/17 00:19:42;;;;;;;;;12.25;11.75;;;;;14.92;51.82;101580.13;6342276;22;45227;-68
2021/10/17 00:22:08;;;;;;;;;16.75;12.75;;;;;14.87;52.15;101576.72;6342153;22;45313;-68
2021/10/17 00:24:33;;;;;;;;;11.50;11.25;;;;;14.61;52.02;101530.16;6341734;22;45661;-68
2021/10/17 00:26:58;;;;;;;;;12.75;10.75;;;;;14.78;51.95;101550.19;6340416;22;45489;-68
2021/10/17 00:29:24;;;;;;;;;13.50;11.50;;;;;14.88;51.85;101572.22;6341920;22;45148;-68
2021/10/17 00:31:50;;;;;;;;;14.25;12.25;;;;;14.82;51.92;101568.81;6341957;22;45260;-68
2021/10/17 00:34:16;;;;;;;;;10.75;10.25;;;;;14.89;51.84;101582.91;6342063;22;45251;-68
2021/10/17 00:36:41;;;;;;;;;13.00;13.00;;;;;14.54;51.98;101534.00;6342118;22;45443;-68
2021/10/17 00:39:07;;;;;;;;;12.50;11.25;;;;;14.82;51.83;101578.72;6341899;22;45383;-68
2021/10/17 00:41:33;;;;;;;;;11.50;11.00;;;;;14.69;51.90;101556.78;6313707;22;47456;-68
2021/10/17 00:44:00;;;;;;;;;10.25;9.00;;;;;14.64;51.67;101559.63;6339447;22;45468;-68
2021/10/17 00:46:26;;;;;;;;;11.75;11.75;;;;;14.68;51.86;101563.06;6313764;22;45310;-68
2021/10/17 00:48:51;;;;;;;;;13.00;12.25;;;;;14.75;51.63;101588.81;6314223;22;45239;-68
2021/10/17 00:51:16;;;;;;;;;11.00;10.75;;;;;14.59;51.70;101560.72;6313283;22;48566;-68
2021/10/17 00:53:43;;;;;;;;;10.00;9.75;;;;;14.56;51.89;101566.19;6341864;22;45150;-68
2021/10/17 00:56:10;;;;;;;;;14.50;10.00;;;;;14.57;51.79;101570.63;6313928;22;45271;-68
2021/10/17 00:58:35;;;;;;;;;11.00;10.25;;;;;14.52;51.75;101560.03;6342240;22;45264;-68
2021/10/17 01:01:01;;;;;;;;;11.25;10.50;;;;;14.63;52.08;101586.53;6313526;22;46181;-68
2021/10/17 01:03:27;;;;;;;;;11.50;10.25;;;;;14.56;52.20;101560.81;6341403;22;45306;-68
2021/10/17 01:05:53;;;;;;;;;9.75;9.75;;;;;14.65;51.93;101579.34;6314124;22;45337;-68
2021/10/17 01:08:19;;;;;;;;;11.50;9.75;;;;;14.47;51.86;101553.97;6341274;22;45327;-68
2021/10/17 01:10:45;;;;;;;;;14.00;12.50;;;;;14.49;52.37;101554.78;6341520;22;45238;-68
2021/10/17 01:13:19;;;;;;;;;11.50;11.25;;;;;14.42;52.31;101546.06;6340877;22;45330;-69
2021/10/17 01:15:53;;;;;;;;;13.50;10.00;;;;;14.39;52.51;101537.25;6341205;22;45326;-68
2021/10/17 01:18:19;;;;;;;;;15.00;11.50;;;;;14.58;52.42;101575.06;6340913;22;45277;-69
2021/10/17 01:20:45;;;;;;;;;13.25;11.75;;;;;14.60;52.29;101573.22;6312550;22;47018;-68
2021/10/17 01:23:11;;;;;;;;;14.25;13.50;;;;;14.38;52.29;101538.16;6340949;22;45243;-68
2021/10/17 01:25:37;;;;;;;;;14.50;13.50;;;;;14.63;52.15;101579.38;6313453;22;45229;-68
2021/10/17 01:28:02;;;;;;;;;14.25;14.00;;;;;14.35;52.19;101527.50;6341531;22;45207;-68
2021/10/17 01:30:31;;;;;;;;;14.25;11.50;;;;;14.61;52.38;101570.47;6341099;22;45414;-68
2021/10/17 01:32:56;;;;;;;;;14.75;13.25;;;;;14.55;52.43;101559.94;6340559;22;45339;-68
2021/10/17 01:35:22;;;;;;;;;12.00;12.00;;;;;14.37;52.51;101536.41;6341852;22;45591;-68
2021/10/17 01:37:47;;;;;;;;;16.50;14.50;;;;;14.43;52.66;101553.19;6341610;22;45472;-68
2021/10/17 01:40:13;;;;;;;;;17.25;14.25;;;;;14.55;52.40;101568.00;6341669;22;46149;-68
2021/10/17 01:42:38;;;;;;;;;13.75;13.00;;;;;14.55;52.63;101575.16;6341495;22;45284;-68
2021/10/17 01:45:04;;;;;;;;;17.50;14.25;;;;;14.55;52.73;101576.06;6341788;22;45371;-68
2021/10/17 01:47:30;;;;;;;;;16.25;15.25;;;;;14.54;52.55;101573.44;6341958;22;45263;-68
2021/10/17 01:49:55;;;;;;;;;12.00;11.75;;;;;14.28;52.83;101537.59;6313454;22;46971;-68
2021/10/17 01:52:21;;;;;;;;;15.25;14.25;;;;;14.31;52.69;101542.00;6339469;22;45447;-68
2021/10/17 01:54:46;;;;;;;;;13.50;13.50;;;;;14.36;52.88;101554.31;6341510;22;45168;-68
2021/10/17 01:57:11;;;;;;;;;17.00;15.25;;;;;14.12;52.90;101520.31;6341619;22;45189;-68
2021/10/17 01:59:37;;;;;;;;;14.75;13.50;;;;;14.38;52.91;101559.66;6341761;22;45188;-68
2021/10/17 02:02:03;;;;;;;;;17.75;16.00;;;;;14.21;53.31;101536.06;6339567;22;45251;-68
2021/10/17 02:04:28;;;;;;;;;18.25;17.00;;;;;14.37;53.35;101568.66;6341147;22;45338;-68
2021/10/17 02:06:53;;;;;;;;;13.50;12.25;;;;;14.21;53.25;101541.44;6341635;22;45175;-68
2021/10/17 02:09:22;;;;;;;;;19.00;15.25;;;;;14.26;53.08;101555.59;6341340;22;46009;-68
2021/10/17 02:11:49;;;;;;;;;15.00;15.00;;;;;14.16;53.30;101538.91;6339504;22;45639;-68
2021/10/17 02:14:15;;;;;;;;;17.00;14.75;;;;;14.34;52.99;101571.44;6340997;22;45276;-68
2021/10/17 02:16:43;;;;;;;;;20.50;17.00;;;;;14.10;53.30;101536.47;6313138;22;45951;-68
2021/10/17 02:19:08;;;;;;;;;11.50;11.50;;;;;13.94;53.55;101513.75;6313185;22;46783;-68
2021/10/17 02:21:34;;;;;;;;;17.75;17.25;;;;;14.26;53.88;101560.94;6341612;22;45151;-68
2021/10/17 02:24:02;;;;;;;;;16.75;16.75;;;;;13.94;53.72;101517.31;6341248;22;45318;-68
2021/10/17 02:26:27;;;;;;;;;15.25;13.50;;;;;14.18;53.55;101563.03;6341786;22;45454;-68
2021/10/17 02:28:53;;;;;;;;;15.50;15.00;;;;;14.05;53.45;101539.28;6341450;22;45475;-68
2021/10/17 02:31:18;;;;;;;;;17.25;15.50;;;;;13.96;53.38;101519.94;6341051;22;45747;-68
2021/10/17 02:33:44;;;;;;;;;18.00;16.00;;;;;14.03;53.59;101530.41;6341727;22;45377;-68
2021/10/17 02:36:09;;;;;;;;;19.25;14.00;;;;;14.13;53.73;101547.06;6313323;22;45472;-68
2021/10/17 02:38:35;;;;;;;;;18.25;15.00;;;;;13.87;53.70;101511.25;6341625;22;45356;-68
2021/10/17 02:41:00;;;;;;;;;17.50;17.00;;;;;13.86;53.63;101505.94;6341747;22;45289;-68
2021/10/17 02:43:26;;;;;;;;;19.75;15.75;;;;;13.88;53.70;101523.75;6340155;22;45299;-68
2021/10/17 02:45:51;;;;;;;;;19.50;17.50;;;;;13.86;53.78;101524.72;6341389;22;45146;-68
2021/10/17 02:48:20;;;;;;;;;14.50;14.50;;;;;14.08;54.00;101566.03;6341462;22;45185;-68
2021/10/17 02:50:45;;;;;;;;;13.75;12.25;;;;;14.00;54.21;101560.06;6341228;22;45416;-68
2021/10/17 02:53:11;;;;;;;;;16.25;16.25;;;;;13.75;54.19;101502.75;6341015;22;45241;-68
2021/10/17 02:55:36;;;;;;;;;15.25;15.25;;;;;13.83;54.27;101519.47;6341456;22;45535;-68
2021/10/17 02:58:04;;;;;;;;;14.75;14.00;;;;;13.80;54.23;101517.78;6341229;22;45275;-68
2021/10/17 03:00:29;;;;;;;;;19.75;18.00;;;;;13.69;54.61;101495.78;6339253;22;45459;-68
2021/10/17 03:02:55;;;;;;;;;17.25;17.25;;;;;13.80;54.23;101515.09;6341477;22;45289;-68
2021/10/17 03:05:20;;;;;;;;;16.75;15.50;;;;;13.58;54.29;101482.75;6341177;22;45309;-68
2021/10/17 03:07:46;;;;;;;;;18.25;17.25;;;;;13.91;54.28;101541.56;6341027;22;46347;-68
2021/10/17 03:10:12;;;;;;;;;17.50;17.00;;;;;13.77;54.42;101522.38;6340951;22;45357;-68
2021/10/17 03:12:38;;;;;;;;;20.25;19.00;;;;;13.90;54.72;101545.19;6341543;22;45196;-68
2021/10/17 03:15:06;;;;;;;;;16.75;15.50;;;;;13.68;54.40;101507.44;6341246;22;45682;-68
2021/10/17 03:17:32;;;;;;;;;20.50;17.50;;;;;13.52;54.41;101499.03;6341225;22;45451;-68
2021/10/17 03:19:58;;;;;;;;;18.00;17.00;;;;;13.45;54.66;101484.94;6341478;22;45327;-68
2021/10/17 03:22:23;;;;;;;;;17.50;14.25;;;;;13.56;54.91;101498.00;6341705;22;45277;-68
2021/10/17 03:24:49;;;;;;;;;19.75;18.25;;;;;13.59;54.57;101513.13;6341221;22;45342;-68
2021/10/17 03:27:14;;;;;;;;;19.00;18.50;;;;;13.49;54.73;101504.47;6313616;22;46311;-68
2021/10/17 03:29:40;;;;;;;;;17.00;14.50;;;;;13.60;54.61;101518.44;6312813;22;45498;-68
2021/10/17 03:32:05;;;;;;;;;19.00;18.50;;;;;13.44;54.47;101498.41;6313013;22;45298;-68
2021/10/17 03:34:31;;;;;;;;;17.50;17.00;;;;;13.75;54.94;101545.66;6340884;22;45307;-68
2021/10/17 03:36:56;;;;;;;;;17.50;15.25;;;;;13.58;55.03;101522.97;6341202;22;46307;-68
2021/10/17 03:39:24;;;;;;;;;22.25;20.75;;;;;13.34;55.10;101485.28;6341049;22;45276;-68
2021/10/17 03:41:50;;;;;;;;;18.25;16.00;;;;;13.62;55.11;101523.75;6341164;22;45253;-68
2021/10/17 03:44:15;;;;;;;;;21.00;18.75;;;;;13.59;55.26;101513.13;6340133;22;45141;-68
2021/10/17 03:46:41;;;;;;;;;20.50;18.50;;;;;13.48;55.29;101500.94;6341105;22;45331;-68
2021/10/17 03:49:06;;;;;;;;;23.50;20.25;;;;;13.23;55.15;101457.91;6340338;22;45340;-68
2021/10/17 03:51:32;;;;;;;;;18.50;17.25;;;;;13.23;55.49;101463.28;6340995;22;45507;-68
2021/10/17 03:53:57;;;;;;;;;21.25;18.75;;;;;13.33;55.67;101472.81;6340822;22;45680;-68
2021/10/17 03:56:23;;;;;;;;;19.75;19.00;;;;;13.33;55.05;101485.31;6340805;22;45301;-68
2021/10/17 03:58:49;;;;;;;;;22.50;21.50;;;;;13.52;55.22;101505.25;6312339;22;45298;-68
2021/10/17 04:01:14;;;;;;;;;21.00;19.25;;;;;13.26;55.20;101473.88;6340748;22;45454;-68
2021/10/17 04:03:41;;;;;;;;;17.25;15.00;;;;;13.42;55.58;101498.44;6340200;22;45491;-68
2021/10/17 04:06:07;;;;;;;;;22.25;20.75;;;;;13.32;55.02;101483.59;6340364;22;45515;-68
2021/10/17 04:08:32;;;;;;;;;21.00;19.00;;;;;13.43;55.02;101499.31;6312249;22;45248;-68
2021/10/17 04:10:57;;;;;;;;;18.25;18.00;;;;;13.59;55.43;101515.81;6340875;22;45300;-68
2021/10/17 04:13:23;;;;;;;;;20.75;18.50;;;;;13.31;55.32;101474.63;6340797;22;45103;-68
2021/10/17 04:15:48;;;;;;;;;18.00;16.00;;;;;13.49;55.01;101496.44;6340299;22;45412;-68
2021/10/17 04:18:14;;;;;;;;;17.50;17.50;;;;;13.48;54.92;101502.72;6340785;22;45156;-68
2021/10/17 04:20:40;;;;;;;;;24.00;20.00;;;;;13.42;55.24;101489.53;6340488;22;45353;-68
2021/10/17 04:23:07;;;;;;;;;22.00;19.50;;;;;13.40;55.01;101488.69;6340055;22;45198;-68
2021/10/17 04:25:33;;;;;;;;;20.00;19.00;;;;;13.48;55.10;101498.25;6340451;22;46352;-68
2021/10/17 04:27:58;;;;;;;;;24.50;21.75;;;;;13.47;55.25;101492.94;6340698;22;45794;-68
2021/10/17 04:30:23;;;;;;;;;20.50;18.50;;;;;13.60;54.87;101521.13;6312172;22;45354;-68
2021/10/17 04:32:49;;;;;;;;;17.25;16.25;;;;;13.49;54.94;101499.13;6340163;22;45274;-68
2021/10/17 04:35:15;;;;;;;;;21.50;19.25;;;;;13.46;55.01;101494.72;6340397;22;45301;-68
2021/10/17 04:37:41;;;;;;;;;22.50;19.50;;;;;13.61;54.75;101528.22;6340385;22;45210;-68
2021/10/17 04:40:09;;;;;;;;;21.50;19.00;;;;;13.51;54.99;101521.41;6340697;22;45287;-68
2021/10/17 04:42:36;;;;;;;;;20.75;19.75;;;;;13.49;55.45;101525.94;6340143;22;45190;-68
2021/10/17 04:45:03;;;;;;;;;18.75;17.75;;;;;13.54;55.27;101521.31;6340165;22;45673;-68
2021/10/17 04:47:28;;;;;;;;;22.75;20.75;;;;;13.35;55.15;101494.22;6340501;22;45376;-68
2021/10/17 04:49:54;;;;;;;;;18.50;16.25;;;;;13.13;54.91;101462.69;6340824;22;45173;-68
2021/10/17 04:52:19;;;;;;;;;19.00;17.00;;;;;13.35;54.93;101499.56;6340332;22;45322;-68
2021/10/17 04:54:45;;;;;;;;;19.00;18.00;;;;;13.44;55.02;101517.16;6340324;22;46123;-68
2021/10/17 04:57:10;;;;;;;;;16.75;16.50;;;;;13.35;55.19;101499.56;6341642;22;45253;-68
2021/10/17 04:59:36;;;;;;;;;19.50;18.00;;;;;13.40;55.09;101513.72;6342095;22;45320;-68
2021/10/17 05:02:02;;;;;;;;;19.50;18.25;;;;;13.32;55.09;101499.66;6341971;22;45273;-68
2021/10/17 05:04:27;;;;;;;;;23.50;18.00;;;;;13.27;55.21;101490.88;6340800;22;45980;-68
2021/10/17 05:06:53;;;;;;;;;19.75;16.00;;;;;13.51;55.04;101526.75;6341969;22;45177;-68
2021/10/17 05:09:18;;;;;;;;;19.25;19.00;;;;;13.33;54.92;101504.09;6341781;22;45176;-68
2021/10/17 05:11:44;;;;;;;;;17.75;17.00;;;;;13.16;55.32;101477.78;6341780;22;45100;-68
2021/10/17 05:14:09;;;;;;;;;18.25;18.25;;;;;13.19;55.71;101482.19;6341220;22;46606;-68
2021/10/17 05:16:35;;;;;;;;;16.50;14.25;;;;;13.50;55.50;101531.25;6341755;22;45072;-68
2021/10/17 05:19:01;;;;;;;;;20.75;18.00;;;;;13.22;55.28;101491.00;6342147;22;45652;-68
2021/10/17 05:21:28;;;;;;;;;19.50;19.50;;;;;13.33;55.45;101514.81;6342037;22;45324;-68
2021/10/17 05:23:55;;;;;;;;;20.00;17.25;;;;;13.45;55.27;101535.03;6341694;22;46381;-68
2021/10/17 05:26:20;;;;;;;;;17.75;16.50;;;;;13.06;54.97;101471.81;6341738;22;45481;-68
2021/10/17 05:28:45;;;;;;;;;20.00;17.00;;;;;13.44;55.80;101541.31;6342274;22;45351;-68
2021/10/17 05:31:11;;;;;;;;;22.25;19.00;;;;;13.10;55.27;101486.03;6312977;22;45585;-68
2021/10/17 05:33:37;;;;;;;;;23.25;21.00;;;;;13.18;55.40;101500.06;6341365;22;45441;-68
2021/10/17 05:36:06;;;;;;;;;19.75;19.00;;;;;13.12;55.41;101497.56;6341424;22;45263;-68
2021/10/17 05:38:31;;;;;;;;;21.50;20.75;;;;;12.98;55.78;101477.44;6313344;22;45322;-68
2021/10/17 05:40:57;;;;;;;;;20.00;18.75;;;;;13.09;55.44;101498.53;6341591;22;45334;-68
2021/10/17 05:43:22;;;;;;;;;20.50;19.50;;;;;13.24;55.21;101534.72;6341645;22;45553;-68
2021/10/17 05:45:48;;;;;;;;;20.25;19.50;;;;;12.98;55.68;101498.00;6341479;22;45301;-68
2021/10/17 05:48:14;;;;;;;;;21.50;20.25;;;;;12.92;55.58;101491.00;6342123;22;45179;-68
2021/10/17 05:50:40;;;;;;;;;19.50;17.75;;;;;13.01;55.78;101513.97;6313360;22;45536;-68
2021/10/17 05:53:05;;;;;;;;;24.00;20.50;;;;;13.15;55.81;101532.34;6341409;22;45619;-68
2021/10/17 05:55:31;;;;;;;;;24.50;20.75;;;;;13.02;55.97;101518.41;6341870;22;45167;-68
2021/10/17 05:57:57;;;;;;;;;20.00;19.00;;;;;12.90;55.73;101497.38;6313531;22;45206;-68
2021/10/17 06:00:23;;;;;;;;;22.50;19.50;;;;;12.80;55.88;101486.03;6312804;22;45514;-68
2021/10/17 06:02:49;;;;;;;;;22.00;20.50;;;;;13.13;55.69;101544.88;6340945;22;46182;-68
2021/10/17 06:05:15;;;;;;;;;18.00;14.75;;;;;12.78;55.83;101491.44;6283907;22;45126;-68
2021/10/17 06:07:40;;;;;;;;;20.00;16.75;;;;;13.03;55.62;101535.38;6310248;22;45407;-68
2021/10/17 06:10:08;;;;;;;;;18.25;16.50;;;;;13.05;55.76;101545.13;6309830;22;45413;-68
2021/10/17 06:12:37;;;;;;;;;17.75;16.25;;;;;13.06;55.81;101549.56;6309652;22;45792;-68
2021/10/17 06:15:05;;;;;;;;;18.50;16.75;;;;;12.70;55.56;101492.59;6309309;22;45523;-68
2021/10/17 06:17:30;;;;;;;;;18.50;16.50;;;;;13.06;55.60;101554.03;6309996;22;45279;-68
2021/10/17 06:19:56;;;;;;;;;17.25;17.00;;;;;12.90;55.69;101533.06;6310205;22;45183;-69
2021/10/17 06:22:22;;;;;;;;;17.25;13.25;;;;;12.71;56.01;101489.88;6309781;22;46469;-68
2021/10/17 06:24:47;;;;;;;;;17.00;14.75;;;;;12.87;55.47;101524.25;6310024;22;45419;-68
2021/10/17 06:27:13;;;;;;;;;19.75;17.50;;;;;12.91;55.56;101532.16;6310328;22;45353;-68
2021/10/17 06:29:38;;;;;;;;;16.00;15.00;;;;;12.64;55.52;101495.44;6309639;22;45331;-68
2021/10/17 06:32:04;;;;;;;;;14.50;14.25;;;;;12.94;56.05;101552.59;6309788;22;45390;-68
2021/10/17 06:34:29;;;;;;;;;20.00;19.00;;;;;12.96;55.76;101554.34;6309605;22;45259;-68
2021/10/17 06:36:56;;;;;;;;;17.25;16.25;;;;;12.82;55.88;101535.09;6309726;22;45325;-69
2021/10/17 06:39:21;;;;;;;;;20.25;17.75;;;;;13.02;55.62;101571.16;6309613;22;45100;-68
2021/10/17 06:41:47;;;;;;;;;16.50;13.50;;;;;12.93;55.68;101572.28;6309507;22;45995;-68
2021/10/17 06:44:12;;;;;;;;;16.25;15.75;;;;;12.80;55.93;101550.34;6309091;22;45285;-68
2021/10/17 07:12:21;;;;;;;;;23.25;18.00;;;;;12.64;56.15;101560.59;6295378;22;47091;-67
2021/10/17 07:14:47;;;;;;;;;26.50;23.00;;;;;12.66;56.16;101565.91;6311743;22;46394;-68
2021/10/17 07:17:12;;;;;;;;;23.50;21.25;;;;;12.48;56.10;101533.38;6340854;22;45264;-68
2021/10/17 07:19:50;;;;;;;;;22.75;21.00;;;;;12.45;56.22;101530.78;6339922;22;45237;-68
2021/10/17 07:22:16;;;;;;;;;19.50;19.50;;;;;12.93;56.11;101605.34;6340724;22;45355;-67
2021/10/17 07:24:46;;;;;;;;;20.75;18.75;;;;;12.79;56.43;101576.22;6339226;22;45445;-67
2021/10/17 07:27:14;;;;;;;;;19.25;19.00;;;;;12.89;55.97;101600.97;6340662;22;45329;-67
2021/10/17 07:29:39;;;;;;;;;27.75;23.50;;;;;12.75;56.33;101573.72;6340712;22;45302;-67
2021/10/17 07:32:05;;;;;;;;;22.50;21.50;;;;;12.63;56.26;101552.59;6339990;22;45494;-67
2021/10/17 07:34:31;;;;;;;;;22.75;20.75;;;;;12.79;56.47;101583.41;6340297;22;46278;-66
2021/10/17 07:36:56;;;;;;;;;13.50;10.25;;;;;12.97;56.14;101612.34;6312149;22;45397;-67
2021/10/17 07:39:25;;;;;;;;;24.00;21.50;;;;;12.87;56.35;101591.22;6340209;22;45568;-67
2021/10/17 07:41:50;;;;;;;;;21.50;18.00;;;;;12.62;56.10;101557.09;6339743;22;45135;-68
2021/10/17 07:44:17;;;;;;;;;20.25;18.25;;;;;12.70;56.41;101572.97;6339050;22;46323;-70
2021/10/17 07:46:43;;;;;;;;;24.50;19.75;;;;;12.77;56.36;101588.78;6340561;22;45216;-70
2021/10/17 07:49:09;;;;;;;;;20.75;20.00;;;;;12.66;56.20;101574.81;6339921;22;45262;-70
2021/10/17 07:51:35;;;;;;;;;21.25;16.00;;;;;12.61;56.10;101576.75;6340461;22;45548;-70
2021/10/17 07:54:00;;;;;;;;;22.00;19.50;;;;;12.57;56.13;101564.38;6339162;22;45967;-70
2021/10/17 07:56:25;;;;;;;;;23.75;17.75;;;;;12.49;56.30;101544.97;6339787;22;45172;-71
2021/10/17 07:58:52;;;;;;;;;21.00;18.75;;;;;12.68;56.34;101582.81;6338797;22;45310;-71
2021/10/17 08:01:20;;;;;;;;;19.50;19.00;;;;;12.90;56.13;101624.16;6339296;22;45314;-71
2021/10/17 08:03:46;;;;;;;;;21.75;18.50;;;;;12.73;55.90;101589.81;6340039;22;46406;-71
2021/10/17 08:06:11;;;;;;;;;20.00;17.00;;;;;12.88;56.20;101603.69;6340242;22;45211;-67
2021/10/17 08:08:37;;;;;;;;;21.00;19.50;;;;;12.65;56.16;101564.19;6340317;22;45238;-70
2021/10/17 08:11:02;;;;;;;;;22.00;20.75;;;;;12.67;56.30;101575.72;6340163;22;45318;-70
2021/10/17 08:13:29;;;;;;;;;19.25;17.25;;;;;12.68;55.99;101589.06;6340018;22;46076;-69
2021/10/17 08:15:55;;;;;;;;;24.75;19.25;;;;;12.69;56.32;101588.13;6339391;22;45369;-70
2021/10/17 08:18:21;;;;;;;;;22.25;20.00;;;;;12.75;56.06;101605.84;6339959;22;45306;-70
2021/10/17 08:20:47;;;;;;;;;20.50;18.25;;;;;12.56;56.00;101571.53;6340635;22;45480;-70
2021/10/17 08:23:14;;;;;;;;;22.50;18.25;;;;;12.48;56.12;101561.94;6340178;22;46071;-68
2021/10/17 08:25:40;;;;;;;;;18.50;17.25;;;;;12.66;56.30;101592.69;6309879;22;45632;-71
2021/10/17 08:28:05;;;;;;;;;16.00;16.00;;;;;12.88;56.33;101633.16;6337755;22;45354;-71
2021/10/17 08:30:31;;;;;;;;;19.00;16.75;;;;;12.85;56.00;101620.75;6339510;22;45333;-74
2021/10/17 08:33:32;;;;;;;;;19.50;18.75;;;;;12.63;55.89;101580.28;6339736;22;45368;-73
2021/10/17 08:36:25;;;;;;;;;19.75;19.75;;;;;12.93;55.72;101613.38;6340864;22;45571;-67
2021/10/17 08:42:59;;;;;;;;;17.00;17.00;;;;;12.78;56.09;101574.50;6222940;22;45461;-70
2021/10/17 08:45:37;;;;;;;;;;;;;;;;;;;;;
2021/10/17 08:48:25;;;;;;;;;24.50;21.25;;;;;13.01;55.61;101596.19;6339218;22;72246;-70
2021/10/17 08:51:22;;;;;;;;;22.75;22.75;;;;;13.03;55.60;101597.91;6318995;22;45388;-70
2021/10/17 08:54:22;;;;;;;;;;;;;;;;;;;;;
2021/10/17 08:56:48;;;;;;;;;21.00;18.75;;;;;13.16;55.98;101604.69;6339734;22;74691;-67
2021/10/17 09:00:04;;;;;;;;;;;;;;;;;;;;;
2021/10/17 09:02:50;;;;;;;;;23.25;19.25;;;;;13.04;55.90;101564.81;6251384;22;69681;-67
2021/10/17 09:15:25;;;;;;;;;23.75;20.50;;;;;13.34;55.60;101610.44;6279304;22;46383;-67
2021/10/17 09:18:12;;;;;;;;;21.75;19.50;;;;;13.34;55.32;101611.31;6276706;22;45271;-66
2021/10/17 09:57:37;;;;;;;;;;;;;;;;;;;;;
2021/10/17 10:00:09;;;;;;;;;19.50;14.75;;;;;13.74;54.59;101546.63;6337860;22;73489;-68
2021/10/17 10:03:23;;;;;;;;;20.00;18.75;;;;;13.74;53.95;101533.19;6343675;22;45412;-72
2021/10/17 10:05:49;;;;;;;;;17.00;17.00;;;;;14.07;53.86;101583.06;6303148;22;45778;-67
2021/10/17 10:15:35;;;;;;;;;20.75;19.75;;;;;14.08;54.18;101560.66;5900911;23;45300;-73
2021/10/17 10:18:02;;;;;;;;;17.75;17.25;;;;;14.12;53.61;101557.88;6109788;23;45373;-68
2021/10/17 10:20:28;;;;;;;;;18.50;17.00;;;;;14.11;53.75;101545.38;6139935;23;45585;-69
2021/10/17 10:22:55;;;;;;;;;22.25;20.75;;;;;14.10;53.48;101536.47;6237574;22;45292;-68
2021/10/17 10:25:21;;;;;;;;;15.75;14.75;;;;;14.34;53.17;101572.31;6340554;22;45258;-76
2021/10/17 10:27:48;;;;;;;;;17.75;15.50;;;;;14.52;53.58;101589.59;6339392;22;45588;-70
2021/10/17 10:30:22;;;;;;;;;14.00;12.25;;;;;14.58;53.08;101593.84;6340145;22;45380;-71
2021/10/17 10:33:17;;;;;;;;;16.50;16.50;;;;;14.61;53.29;101593.78;6312106;22;45424;-70
2021/10/17 10:36:09;;;;;;;;;17.00;15.50;;;;;14.41;52.83;101556.84;6341381;22;45301;-71
2021/10/17 10:38:55;;;;;;;;;14.75;14.75;;;;;14.67;52.88;101590.91;6340296;22;45243;-68
2021/10/17 10:41:31;;;;;;;;;17.50;17.50;;;;;14.58;52.51;101567.91;6340458;22;45517;-70
2021/10/17 10:44:57;;;;;;;;;13.50;13.50;;;;;14.72;52.63;101588.06;6339946;22;45439;-68
2021/10/17 10:54:38;;;;;;;;;18.25;18.00;;;;;14.84;52.67;101586.72;6091631;23;45494;-68
2021/10/17 10:57:59;;;;;;;;;;;;;;;;;;;;;
2021/10/17 11:00:43;;;;;;;;;13.50;13.50;;;;;14.89;52.11;101580.22;6189349;22;68871;-68
2021/10/17 11:08:19;;;;;;;;;13.50;13.00;;;;;14.86;51.76;101536.47;6313868;22;45286;-69
2021/10/17 11:10:50;;;;;;;;;13.50;12.75;;;;;14.90;52.30;101536.28;6340923;22;45521;-69
2021/10/17 11:13:38;;;;;;;;;12.50;10.50;;;;;15.11;52.11;101577.59;6339772;22;45420;-68
2021/10/17 11:16:15;;;;;;;;;15.75;12.75;;;;;15.01;51.42;101558.25;6339801;22;45571;-69
2021/10/17 11:18:45;;;;;;;;;10.50;10.50;;;;;14.96;51.62;101549.47;6340073;22;45410;-70
2021/10/17 11:21:11;;;;;;;;;11.00;10.00;;;;;15.00;51.63;101550.25;6312168;22;45349;-69
2021/10/17 11:24:26;;;;;;;;;10.00;10.00;;;;;15.21;51.41;101572.75;6310118;22;45276;-71
2021/10/17 11:30:36;;;;;;;;;11.00;11.00;;;;;15.22;51.30;101557.47;6301447;22;45363;-71
2021/10/17 11:33:16;;;;;;;;;13.00;11.25;;;;;15.01;51.59;101515.22;6338131;22;45291;-67
2021/10/17 11:35:41;;;;;;;;;10.25;10.25;;;;;15.15;51.70;101538.91;6339856;22;45383;-68
2021/10/17 11:38:07;;;;;;;;;10.50;9.25;;;;;15.29;51.73;101553.63;6339630;22;45306;-70
2021/10/17 11:40:35;;;;;;;;;14.25;12.75;;;;;15.20;51.35;101527.97;6340515;22;45408;-70
2021/10/17 11:43:07;;;;;;;;;10.00;10.00;;;;;15.32;51.02;101545.47;6340286;22;45208;-70
2021/10/17 11:46:12;;;;;;;;;14.25;13.00;;;;;15.40;51.81;101540.63;6339735;22;45308;-69
2021/10/17 11:48:55;;;;;;;;;;;;;;;;;;;;;
2021/10/17 12:05:56;;;;;;;;;10.50;10.50;;;;;15.45;50.99;101495.59;6332414;22;45404;-62
2021/10/17 12:08:57;;;;;;;;;13.00;12.00;;;;;15.84;51.05;101539.81;6183536;23;45400;-62
2021/10/17 12:11:46;;;;;;;;;;;;;;;;;;;;;
2021/10/17 12:25:53;;;;;;;;;;;;;;;;;;;;;
2021/10/17 12:28:43;;;;;;;;;;;;;;;;;;;;;
2021/10/17 12:31:35;;;;;;;;;7.25;6.50;;;;;16.04;49.63;101534.44;5993082;23;67689;-63
2021/10/17 12:40:31;;;;;;;;;7.50;6.75;;;;;16.07;49.68;101526.25;6026835;23;45595;-63
2021/10/17 12:43:09;;;;;;;;;6.25;6.25;;;;;15.81;49.37;101488.78;6158905;23;45292;-63
2021/10/17 12:45:44;;;;;;;;;8.25;7.50;;;;;15.99;49.49;101517.63;6286440;22;45503;-63
2021/10/17 12:48:30;;;;;;;;;5.50;5.50;;;;;16.11;49.92;101521.59;6341865;22;46120;-63
2021/10/17 12:51:05;;;;;;;;;8.75;7.00;;;;;16.02;49.47;101509.41;6314376;22;45201;-63
2021/10/17 12:53:33;;;;;;;;;10.00;7.75;;;;;16.19;49.36;101529.31;6312840;22;45428;-63
2021/10/17 12:56:01;;;;;;;;;6.25;5.75;;;;;16.09;49.54;101510.00;6342174;22;45312;-63
2021/10/17 12:58:36;;;;;;;;;7.25;5.75;;;;;16.23;49.39;101523.75;6313546;22;47228;-63
2021/10/17 13:01:09;;;;;;;;;6.00;5.25;;;;;15.98;49.05;101463.81;6342249;22;45764;-63
2021/10/17 13:03:34;;;;;;;;;6.25;5.50;;;;;16.07;49.31;101480.47;6313005;22;45439;-63
2021/10/17 13:06:10;;;;;;;;;8.00;8.00;;;;;16.36;49.28;101517.84;6341437;22;45471;-63
2021/10/17 13:08:56;;;;;;;;;10.00;7.25;;;;;16.26;49.17;101504.75;6341888;22;46349;-63
2021/10/17 13:11:53;;;;;;;;;;;;;;;;;;;;;
2021/10/17 13:14:49;;;;;;;;;;;;;;;;;;;;;
2021/10/17 13:32:25;;;;;;;;;;;;;;;;;;;;;
2021/10/17 14:49:40;;;;;;;;;4.75;4.00;;;;;16.79;45.90;101468.22;6247413;22;45295;-63
2021/10/17 14:52:07;;;;;;;;;4.75;4.75;;;;;16.80;45.69;101469.09;6245962;22;45328;-62
2021/10/17 14:54:33;;;;;;;;;5.75;4.25;;;;;16.80;45.95;101452.91;6244730;22;45209;-62
2021/10/17 14:56:59;;;;;;;;;5.25;5.00;;;;;16.99;45.89;101480.81;6247611;22;45506;-62
2021/10/17 14:59:26;;;;;;;;;5.00;4.75;;;;;16.87;46.00;101462.50;6246887;22;45506;-62
2021/10/17 15:01:52;;;;;;;;;4.00;4.00;;;;;17.02;45.84;101477.97;6240885;22;45422;-62
2021/10/17 15:04:18;;;;;;;;;7.25;5.00;;;;;16.85;45.76;101450.91;6244362;22;45416;-62
2021/10/17 15:06:43;;;;;;;;;3.75;3.75;;;;;16.94;45.55;101461.28;6245331;22;45635;-62
2021/10/17 15:09:09;;;;;;;;;4.50;3.25;;;;;16.89;45.28;101452.53;6216567;22;48113;-63
2021/10/17 15:11:34;;;;;;;;;5.00;5.00;;;;;16.86;45.64;101439.19;6246296;22;45364;-62
2021/10/17 15:14:03;;;;;;;;;5.25;5.25;;;;;17.08;45.10;101466.00;6246123;22;45347;-62
2021/10/17 15:16:29;;;;;;;;;5.75;5.00;;;;;16.90;45.18;101443.47;6246313;22;45310;-62
2021/10/17 15:18:54;;;;;;;;;3.75;3.75;;;;;17.08;44.64;101466.00;6245902;22;46381;-62